createdAt,value
2022-09-10T00:02:11.675Z,101014.03
2022-09-10T00:05:39.954Z,101015.88
2022-09-10T00:09:02.667Z,101010.84
2022-09-10T00:12:24.471Z,101015.53
2022-09-10T00:15:49.712Z,101018.03
2022-09-10T00:19:11.562Z,101015.00
2022-09-10T00:22:34.424Z,101013.66
2022-09-10T00:25:58.062Z,101010.63
2022-09-10T00:29:19.819Z,101006.91
2022-09-10T00:32:43.095Z,101004.00
2022-09-10T00:36:07.182Z,101002.31
2022-09-10T00:39:29.219Z,101001.78
2022-09-10T00:42:50.902Z,101011.16
2022-09-10T00:46:12.950Z,101008.31
2022-09-10T00:49:40.074Z,101008.63
2022-09-10T00:53:05.989Z,101006.41
2022-09-10T00:56:28.326Z,101010.44
2022-09-10T00:59:59.931Z,101018.47
2022-09-10T01:03:25.699Z,101025.13
2022-09-10T01:06:52.362Z,101017.66
2022-09-10T01:10:19.148Z,101013.81
2022-09-10T01:13:53.927Z,101018.09
2022-09-10T01:17:26.846Z,101012.53
2022-09-10T01:21:11.593Z,101016.84
2022-09-10T01:24:48.202Z,101016.94
2022-09-10T01:28:18.500Z,101022.41
2022-09-10T01:31:49.784Z,101023.34
2022-09-10T01:35:18.214Z,101018.91
2022-09-10T01:38:41.938Z,101013.44
2022-09-10T01:42:04.077Z,101015.06
2022-09-10T01:45:34.178Z,101010.63
2022-09-10T01:49:19.751Z,101008.88
2022-09-10T01:52:52.021Z,101005.94
2022-09-10T01:56:25.385Z,101000.63
2022-09-10T01:59:55.425Z,100998.56
2022-09-10T02:03:23.825Z,100992.63
2022-09-10T02:06:50.958Z,100987.75
2022-09-10T02:10:12.568Z,100994.41
2022-09-10T02:13:40.390Z,100986.81
2022-09-10T02:17:23.022Z,100992.09
2022-09-10T02:20:47.564Z,100999.44
2022-09-10T02:24:12.538Z,101003.09
2022-09-10T02:27:38.253Z,101005.91
2022-09-10T02:31:00.118Z,101006.81
2022-09-10T02:34:21.895Z,101014.84
2022-09-10T02:37:46.049Z,101013.28
2022-09-10T02:41:09.434Z,101011.78
2022-09-10T02:44:31.174Z,101016.44
2022-09-10T02:47:55.566Z,101020.41
2022-09-10T02:51:19.021Z,101022.69
2022-09-10T02:54:42.038Z,101024.09
2022-09-10T02:58:05.146Z,101024.53
2022-09-10T03:01:27.002Z,101025.81
2022-09-10T03:05:00.143Z,101026.13
2022-09-10T03:08:21.982Z,101024.72
2022-09-10T03:11:46.520Z,101026.28
2022-09-10T03:15:10.294Z,101031.94
2022-09-10T03:18:32.434Z,101028.84
2022-09-10T03:21:54.105Z,101023.94
2022-09-10T03:25:16.257Z,101021.66
2022-09-10T03:28:39.620Z,101029.28
2022-09-10T03:32:02.854Z,101021.56
2022-09-10T03:35:24.825Z,101019.03
2022-09-10T03:38:46.756Z,101016.78
2022-09-10T03:42:08.697Z,101022.38
2022-09-10T03:45:31.827Z,101019.31
2022-09-10T03:48:55.452Z,101015.22
2022-09-10T03:52:22.658Z,101018.19
2022-09-10T03:55:46.220Z,101021.69
2022-09-10T03:59:08.110Z,101019.19
2022-09-10T04:02:34.193Z,101011.56
2022-09-10T04:05:56.242Z,101011.84
2022-09-10T04:09:18.146Z,101020.84
2022-09-10T04:12:39.619Z,101016.91
2022-09-10T04:16:02.841Z,101014.69
2022-09-10T04:19:28.116Z,101011.28
2022-09-10T04:22:51.409Z,101024.63
2022-09-10T04:26:14.634Z,101021.41
2022-09-10T04:29:38.079Z,101012.00
2022-09-10T04:33:00.807Z,101025.66
2022-09-10T04:36:27.083Z,101028.59
2022-09-10T04:39:49.335Z,101028.88
2022-09-10T04:43:11.758Z,101035.06
2022-09-10T04:46:36.277Z,101026.47
2022-09-10T04:50:01.266Z,101026.72
2022-09-10T04:53:25.578Z,101025.06
2022-09-10T04:56:48.274Z,101029.28
2022-09-10T05:00:11.237Z,101019.69
2022-09-10T05:03:33.715Z,101017.03
2022-09-10T05:06:56.225Z,101025.31
2022-09-10T05:10:21.481Z,101018.56
2022-09-10T05:13:43.526Z,101020.53
2022-09-10T05:17:06.692Z,101017.03
2022-09-10T05:20:29.003Z,101020.53
2022-09-10T05:23:51.368Z,101018.44
2022-09-10T05:27:14.531Z,101026.31
2022-09-10T05:30:36.722Z,101016.31
2022-09-10T05:34:01.249Z,101022.53
2022-09-10T05:37:24.455Z,101025.91
2022-09-10T05:40:49.213Z,101023.94
2022-09-10T05:44:12.458Z,101026.47
2022-09-10T05:47:34.734Z,101030.13
2022-09-10T05:50:57.255Z,101036.91
2022-09-10T05:54:19.478Z,101042.78
2022-09-10T05:57:41.521Z,101038.72
2022-09-10T06:01:08.097Z,101033.81
2022-09-10T06:04:29.646Z,101040.16
2022-09-10T06:07:52.614Z,101046.47
2022-09-10T06:11:14.458Z,101036.75
2022-09-10T06:14:40.253Z,101036.88
2022-09-10T06:18:04.778Z,101045.09
2022-09-10T06:21:29.405Z,101049.88
2022-09-10T06:24:53.801Z,101056.34
2022-09-10T06:28:16.065Z,101058.13
2022-09-10T06:31:38.002Z,101051.50
2022-09-10T06:35:02.089Z,101049.78
2022-09-10T06:38:24.390Z,101064.84
2022-09-10T06:41:49.591Z,101063.25
2022-09-10T06:45:43.840Z,101062.25
2022-09-10T06:49:23.158Z,101057.81
2022-09-10T06:52:46.037Z,101051.72
2022-09-10T06:56:11.983Z,101057.16
2022-09-10T06:59:34.786Z,101056.44
2022-09-10T07:02:56.599Z,101059.91
2022-09-10T07:06:20.126Z,101064.38
2022-09-10T07:09:47.290Z,101061.50
2022-09-10T07:13:12.615Z,101062.28
2022-09-10T07:16:35.530Z,101055.69
2022-09-10T07:19:57.542Z,101059.66
2022-09-10T07:23:27.311Z,101066.09
2022-09-10T07:26:50.386Z,101061.66
2022-09-10T07:30:13.531Z,101060.56
2022-09-10T07:33:35.250Z,101058.94
2022-09-10T07:36:56.886Z,101062.22
2022-09-10T07:40:19.885Z,101068.34
2022-09-10T07:43:44.375Z,101063.44
2022-09-10T07:47:07.642Z,101058.25
2022-09-10T07:50:29.635Z,101058.81
2022-09-10T07:53:54.064Z,101058.88
2022-09-10T07:57:16.543Z,101057.06
2022-09-10T08:00:40.138Z,101050.88
2022-09-10T08:04:06.242Z,101056.66
2022-09-10T08:07:31.258Z,101065.91
2022-09-10T08:10:53.670Z,101060.38
2022-09-10T08:14:15.457Z,101052.38
2022-09-10T08:17:42.826Z,101062.94
2022-09-10T08:21:05.471Z,101056.59
2022-09-10T08:24:28.179Z,101055.78
2022-09-10T08:27:50.260Z,101053.97
2022-09-10T08:31:13.753Z,101057.00
2022-09-10T08:34:43.669Z,101055.81
2022-09-10T08:38:08.567Z,101056.81
2022-09-10T08:41:42.474Z,101057.34
2022-09-10T08:45:15.598Z,101056.16
2022-09-10T08:48:40.864Z,101049.72
2022-09-10T08:52:14.073Z,101050.41
2022-09-10T08:55:41.447Z,101052.06
2022-09-10T08:59:11.957Z,101052.91
2022-09-10T09:02:49.129Z,101054.38
2022-09-10T09:06:29.066Z,101045.59
2022-09-10T09:09:53.235Z,101041.22
2022-09-10T09:13:33.654Z,101051.97
2022-09-10T09:17:10.906Z,101048.56
2022-09-10T09:20:43.063Z,101038.09
2022-09-10T09:24:16.681Z,101032.50
2022-09-10T09:27:47.714Z,101048.09
2022-09-10T09:31:15.293Z,101039.94
2022-09-10T09:34:43.114Z,101043.81
2022-09-10T09:38:20.982Z,101044.56
2022-09-10T09:41:55.575Z,101044.56
2022-09-10T09:45:26.394Z,101036.78
2022-09-10T09:48:48.932Z,101046.47
2022-09-10T09:52:19.567Z,101037.84
2022-09-10T09:55:44.926Z,101044.00
2022-09-10T09:59:14.935Z,101042.63
2022-09-10T10:02:38.671Z,101040.25
2022-09-10T10:06:02.804Z,101041.72
2022-09-10T10:09:28.950Z,101035.28
2022-09-10T10:12:52.549Z,101041.84
2022-09-10T10:16:22.871Z,101037.53
2022-09-10T10:19:58.853Z,101040.56
2022-09-10T10:23:36.440Z,101040.66
2022-09-10T10:26:58.580Z,101036.56
2022-09-10T10:30:25.164Z,101041.50
2022-09-10T10:33:55.938Z,101029.94
2022-09-10T10:37:29.082Z,101035.25
2022-09-10T10:40:57.696Z,101034.72
2022-09-10T10:44:49.299Z,101033.88
2022-09-10T10:48:13.482Z,101030.41
2022-09-10T10:51:46.990Z,101033.63
2022-09-10T10:55:18.427Z,101018.53
2022-09-10T10:58:54.592Z,101025.25
2022-09-10T11:02:22.267Z,101033.00
2022-09-10T11:05:48.124Z,101022.44
2022-09-10T11:09:16.937Z,101025.25
2022-09-10T11:12:46.585Z,101020.75
2022-09-10T11:16:15.259Z,101026.69
2022-09-10T11:19:43.486Z,101016.34
2022-09-10T11:23:14.802Z,101021.81
2022-09-10T11:26:41.478Z,101023.81
2022-09-10T11:30:08.073Z,101012.38
2022-09-10T11:33:37.235Z,101006.59
2022-09-10T11:37:07.626Z,101003.31
2022-09-10T11:40:39.722Z,101005.38
2022-09-10T11:44:12.252Z,101002.69
2022-09-10T11:47:39.794Z,101005.81
2022-09-10T11:51:03.829Z,100999.53
2022-09-10T11:54:29.761Z,101003.81
2022-09-10T11:58:03.870Z,101001.75
2022-09-10T12:01:39.525Z,101001.56
2022-09-10T12:05:12.610Z,100995.69
2022-09-10T12:08:45.978Z,101003.09
2022-09-10T12:12:16.194Z,100991.81
2022-09-10T12:15:39.145Z,100985.25
2022-09-10T12:19:02.810Z,100984.69
2022-09-10T12:22:30.492Z,100988.13
2022-09-10T12:25:58.938Z,100982.41
2022-09-10T12:29:33.159Z,100974.59
2022-09-10T12:32:57.814Z,100985.72
2022-09-10T12:36:52.760Z,100987.81
2022-09-10T12:40:49.639Z,100986.09
2022-09-10T12:44:45.239Z,100983.47
2022-09-10T12:48:14.203Z,100981.13
2022-09-10T12:51:56.665Z,100974.91
2022-09-10T12:55:28.684Z,100980.69
2022-09-10T12:59:07.236Z,100977.78
2022-09-10T13:02:32.423Z,100970.75
2022-09-10T13:05:56.652Z,100976.44
2022-09-10T13:09:22.234Z,100970.03
2022-09-10T13:12:45.275Z,100970.22
2022-09-10T13:16:17.270Z,100964.41
2022-09-10T13:19:52.549Z,100955.47
2022-09-10T13:23:22.082Z,100946.09
2022-09-10T13:26:52.332Z,100941.53
2022-09-10T13:30:20.326Z,100943.00
2022-09-10T13:33:59.026Z,100943.88
2022-09-10T13:37:42.258Z,100942.22
2022-09-10T13:41:26.234Z,100945.19
2022-09-10T13:45:03.230Z,100942.72
2022-09-10T13:48:28.187Z,100939.22
2022-09-10T13:51:54.206Z,100939.47
2022-09-10T13:55:20.727Z,100949.50
2022-09-10T13:58:49.073Z,100946.00
2022-09-10T14:02:10.857Z,100934.75
2022-09-10T14:05:36.757Z,100933.59
2022-09-10T14:09:04.671Z,100945.09
2022-09-10T14:12:30.753Z,100937.84
2022-09-10T14:15:54.429Z,100935.16
2022-09-10T14:19:19.989Z,100937.47
2022-09-10T14:22:41.278Z,100931.44
2022-09-10T14:26:23.452Z,100930.84
2022-09-10T14:29:46.355Z,100923.56
2022-09-10T14:33:22.464Z,100919.00
2022-09-10T14:36:44.109Z,100916.72
2022-09-10T14:40:15.805Z,100913.41
2022-09-10T14:43:40.951Z,100920.31
2022-09-10T14:47:14.842Z,100916.19
2022-09-10T14:50:36.805Z,100912.44
2022-09-10T14:53:59.603Z,100913.91
2022-09-10T14:57:21.114Z,100916.44
2022-09-10T15:00:45.414Z,100918.94
2022-09-10T15:04:06.941Z,100924.78
2022-09-10T15:07:29.235Z,100919.34
2022-09-10T15:10:51.184Z,100928.31
2022-09-10T15:14:16.822Z,100925.84
2022-09-10T15:17:41.654Z,100919.16
2022-09-10T15:21:04.087Z,100927.09
2022-09-10T15:24:26.427Z,100930.22
2022-09-10T15:27:48.301Z,100927.06
2022-09-10T15:31:11.014Z,100939.16
2022-09-10T15:34:34.517Z,100943.34
2022-09-10T15:37:57.447Z,100946.06
2022-09-10T15:41:19.103Z,100951.66
2022-09-10T15:44:41.367Z,100963.53
2022-09-10T15:48:03.530Z,100968.16
2022-09-10T15:51:26.954Z,100992.09
2022-09-10T15:54:48.822Z,101002.97
2022-09-10T15:58:10.596Z,101067.06
2022-09-10T16:01:33.929Z,101049.97
2022-09-10T16:04:55.603Z,101033.19
2022-09-10T16:08:18.933Z,101071.22
2022-09-10T16:11:42.290Z,101037.00
2022-09-10T16:15:04.163Z,101021.47
2022-09-10T16:18:25.805Z,101027.22
2022-09-10T16:21:48.309Z,101030.31
2022-09-10T16:25:12.180Z,101041.28
2022-09-10T16:28:34.476Z,101033.81
2022-09-10T16:31:56.380Z,101035.25
2022-09-10T16:35:18.414Z,101044.53
2022-09-10T16:38:41.264Z,101038.00
2022-09-10T16:42:04.727Z,101034.28
2022-09-10T16:45:27.320Z,101032.41
2022-09-10T16:48:52.791Z,101032.41
2022-09-10T16:52:14.806Z,101031.75
2022-09-10T16:55:36.874Z,101025.53
2022-09-10T16:59:00.392Z,101029.25
2022-09-10T17:02:22.382Z,101026.88
2022-09-10T17:05:46.672Z,101023.88
2022-09-10T17:09:08.716Z,101024.19
2022-09-10T17:12:30.490Z,101023.69
2022-09-10T17:15:54.291Z,101022.16
2022-09-10T17:19:18.674Z,101024.84
2022-09-10T17:22:40.413Z,101031.09
2022-09-10T17:26:06.372Z,101030.91
2022-09-10T17:29:28.125Z,101027.88
2022-09-10T17:32:51.512Z,101037.31
2022-09-10T17:36:13.711Z,101044.72
2022-09-10T17:39:35.841Z,101046.72
2022-09-10T17:42:57.412Z,101055.81
2022-09-10T17:46:22.803Z,101055.34
2022-09-10T17:49:46.004Z,101049.44
2022-09-10T17:53:08.036Z,101049.59
2022-09-10T17:56:29.586Z,101054.16
2022-09-10T17:59:51.325Z,101061.69
2022-09-10T18:03:14.434Z,101061.03
2022-09-10T18:06:38.150Z,101062.38
2022-09-10T18:09:59.747Z,101053.63
2022-09-10T18:13:21.180Z,101067.94
2022-09-10T18:16:43.016Z,101056.66
2022-09-10T18:20:04.803Z,101069.28
2022-09-10T18:23:28.126Z,101072.13
2022-09-10T18:26:51.522Z,101072.13
2022-09-10T18:30:13.924Z,101075.81
2022-09-10T18:33:38.371Z,101067.22
2022-09-10T18:37:01.825Z,101072.78
2022-09-10T18:40:25.158Z,101078.47
2022-09-10T18:43:47.158Z,101077.94
2022-09-10T18:47:27.836Z,101080.16
2022-09-10T18:50:51.975Z,101080.63
2022-09-10T18:54:15.852Z,101076.41
2022-09-10T18:57:38.787Z,101075.91
2022-09-10T19:01:05.958Z,101072.00
2022-09-10T19:04:30.006Z,101076.03
2022-09-10T19:07:52.221Z,101080.06
2022-09-10T19:11:17.390Z,101083.22
2022-09-10T19:14:40.610Z,101081.19
2022-09-10T19:18:06.285Z,101094.97
2022-09-10T19:21:30.987Z,101086.69
2022-09-10T19:24:55.332Z,101083.50
2022-09-10T19:28:17.431Z,101087.53
2022-09-10T19:31:42.270Z,101079.91
2022-09-10T19:35:03.984Z,101079.38
2022-09-10T19:38:37.148Z,101073.66
2022-09-10T19:41:59.485Z,101078.22
2022-09-10T19:45:21.659Z,101082.03
2022-09-10T19:48:46.699Z,101079.00
2022-09-10T19:52:08.305Z,101088.38
2022-09-10T19:55:30.079Z,101079.78
2022-09-10T19:58:53.531Z,101090.69
2022-09-10T20:02:15.960Z,101091.03
2022-09-10T20:05:39.610Z,101078.06
2022-09-10T20:09:01.853Z,101078.38
2022-09-10T20:12:24.344Z,101075.88
2022-09-10T20:15:46.399Z,101056.34
2022-09-10T20:19:08.690Z,101068.94
2022-09-10T20:22:34.694Z,101067.38
2022-09-10T20:26:07.919Z,101062.19
2022-09-10T20:29:32.759Z,101072.06
2022-09-10T20:32:54.746Z,101067.88
2022-09-10T20:36:18.541Z,101076.94
2022-09-10T20:39:42.696Z,101073.25
2022-09-10T20:43:04.826Z,101077.63
2022-09-10T20:46:28.104Z,101077.63
2022-09-10T20:49:49.566Z,101075.06
2022-09-10T20:53:11.009Z,101080.63
2022-09-10T20:56:33.821Z,101079.06
2022-09-10T20:59:55.526Z,101082.06
2022-09-10T21:03:17.541Z,101088.44
2022-09-10T21:06:39.027Z,101080.03
2022-09-10T21:10:00.910Z,101084.03
2022-09-10T21:13:26.050Z,101090.53
2022-09-10T21:16:48.241Z,101097.06
2022-09-10T21:20:12.360Z,101095.38
2022-09-10T21:23:33.887Z,101096.84
2022-09-10T21:26:56.735Z,101106.22
2022-09-10T21:30:19.474Z,101101.97
2022-09-10T21:33:42.502Z,101098.91
2022-09-10T21:37:04.492Z,101103.75
2022-09-10T21:40:26.211Z,101100.66
2022-09-10T21:43:48.617Z,101114.25
2022-09-10T21:47:11.914Z,101110.88
2022-09-10T21:50:33.698Z,101116.41
2022-09-10T21:53:56.564Z,101121.06
2022-09-10T21:57:18.382Z,101125.91
2022-09-10T22:00:39.954Z,101126.22
2022-09-10T22:04:04.125Z,101134.41
2022-09-10T22:07:25.714Z,101129.91
2022-09-10T22:10:47.742Z,101127.22
2022-09-10T22:14:13.613Z,101121.13
2022-09-10T22:17:35.569Z,101122.00
2022-09-10T22:21:00.910Z,101125.53
2022-09-10T22:24:22.542Z,101124.81
2022-09-10T22:27:44.156Z,101121.44
2022-09-10T22:31:10.289Z,101129.78
2022-09-10T22:34:32.057Z,101122.06
2022-09-10T22:37:58.645Z,101126.88
2022-09-10T22:41:23.181Z,101131.41
2022-09-10T22:44:44.733Z,101129.88
2022-09-10T22:48:06.174Z,101132.00
2022-09-10T22:51:29.551Z,101137.50
2022-09-10T22:54:52.525Z,101137.81
2022-09-10T22:58:14.882Z,101139.66
2022-09-10T23:01:38.827Z,101135.44
2022-09-10T23:05:01.249Z,101142.78
2022-09-10T23:08:25.072Z,101143.09
2022-09-10T23:11:48.502Z,101134.34
2022-09-10T23:15:10.881Z,101149.59
2022-09-10T23:18:33.021Z,101143.50
2022-09-10T23:21:56.033Z,101153.84
2022-09-10T23:25:18.514Z,101148.91
2022-09-10T23:28:42.884Z,101150.03
2022-09-10T23:32:04.529Z,101144.16
2022-09-10T23:35:26.456Z,101154.31
2022-09-10T23:38:48.550Z,101153.91
2022-09-10T23:42:10.323Z,101151.38
2022-09-10T23:45:33.281Z,101152.53
2022-09-10T23:48:54.999Z,101150.28
2022-09-10T23:52:17.634Z,101157.78
2022-09-10T23:55:40.137Z,101166.06
2022-09-10T23:59:01.530Z,101161.72
